Terminal Aerodrome Forecast
Issued by NWS

Home | Current Version | Previous Version | Graphics & Text | Print | Product List | Glossary On
Versions: 1 2 3 4 5 6 7 8 9 10 11 12 13 14 15 16 17 18 19 20
000
FTUS43 KGRB 222332
TAFRHI
TAF
KRHI 222332Z 2300/2324 VRB03KT P6SM SCT018 BKN050
      TEMPO 2300/2303 -SHRA BKN017
     FM230400 27003KT P6SM SCT090
     FM231500 28009G14KT P6SM SCT040
     FM231700 29011G19KT P6SM BKN045=

USA.gov is the U.S. government's official web portal to all federal, state and local government web resources and services.